createdAt,value
2023-05-24T00:00:36.785Z,13.50
2023-05-24T00:03:06.918Z,13.40
2023-05-24T00:05:37.833Z,13.40
2023-05-24T00:08:06.035Z,13.40
2023-05-24T00:10:34.167Z,13.40
2023-05-24T00:13:02.242Z,13.40
2023-05-24T00:15:30.494Z,13.40
2023-05-24T00:17:58.572Z,13.40
2023-05-24T00:20:26.899Z,13.40
2023-05-24T00:22:56.322Z,13.40
2023-05-24T00:25:24.501Z,13.30
2023-05-24T00:27:52.533Z,13.20
2023-05-24T00:30:20.892Z,13.20
2023-05-24T00:32:48.962Z,13.20
2023-05-24T00:35:17.068Z,13.30
2023-05-24T00:37:45.649Z,13.20
2023-05-24T00:40:15.428Z,13.20
2023-05-24T00:42:43.433Z,13.20
2023-05-24T00:45:12.050Z,13.30
2023-05-24T00:47:40.321Z,13.30
2023-05-24T00:50:11.773Z,13.30
2023-05-24T00:52:40.636Z,13.30
2023-05-24T00:55:09.901Z,13.30
2023-05-24T00:57:39.389Z,13.40
2023-05-24T01:00:08.916Z,13.40
2023-05-24T01:02:38.037Z,13.30
2023-05-24T01:05:07.067Z,13.30
2023-05-24T01:07:43.498Z,13.30
2023-05-24T01:10:19.729Z,13.30
2023-05-24T01:12:57.167Z,13.30
2023-05-24T01:15:32.958Z,13.30
2023-05-24T01:18:08.679Z,13.20
2023-05-24T01:20:39.166Z,13.20
2023-05-24T01:23:19.560Z,13.20
2023-05-24T01:26:04.424Z,13.10
2023-05-24T01:28:35.309Z,13.10
2023-05-24T01:31:04.472Z,13.10
2023-05-24T01:33:33.283Z,13.10
2023-05-24T01:36:01.338Z,13.20
2023-05-24T01:38:29.402Z,13.10
2023-05-24T01:41:06.577Z,13.10
2023-05-24T01:43:41.148Z,13.20
2023-05-24T01:46:19.763Z,13.10
2023-05-24T01:48:55.694Z,13.20
2023-05-24T01:51:26.283Z,13.20
2023-05-24T01:53:55.789Z,13.20
2023-05-24T01:56:24.709Z,13.00
2023-05-24T01:58:55.772Z,13.00
2023-05-24T02:01:24.402Z,13.00
2023-05-24T02:03:52.459Z,13.10
2023-05-24T02:06:20.489Z,13.10
2023-05-24T02:08:48.493Z,13.00
2023-05-24T02:11:16.486Z,13.00
2023-05-24T02:13:44.441Z,12.90
2023-05-24T02:16:13.801Z,12.80
2023-05-24T02:18:44.459Z,12.80
2023-05-24T02:21:12.893Z,12.80
2023-05-24T02:23:41.049Z,12.80
2023-05-24T02:26:11.520Z,12.70
2023-05-24T02:28:39.591Z,12.80
2023-05-24T02:31:08.555Z,12.80
2023-05-24T02:33:38.124Z,12.80
2023-05-24T02:36:06.280Z,12.70
2023-05-24T02:38:34.370Z,12.70
2023-05-24T02:41:02.384Z,12.60
2023-05-24T02:43:30.420Z,12.50
2023-05-24T02:45:58.453Z,12.50
2023-05-24T02:48:26.508Z,12.50
2023-05-24T02:50:55.850Z,12.40
2023-05-24T02:53:23.890Z,12.40
2023-05-24T02:55:52.037Z,12.40
2023-05-24T02:58:20.096Z,12.30
2023-05-24T03:00:48.152Z,12.30
2023-05-24T03:03:16.536Z,12.30
2023-05-24T03:05:44.630Z,12.30
2023-05-24T03:08:14.001Z,12.20
2023-05-24T03:10:42.149Z,12.10
2023-05-24T03:13:10.349Z,12.10
2023-05-24T03:15:38.356Z,12.10
2023-05-24T03:18:06.533Z,12.10
2023-05-24T03:20:34.848Z,12.10
2023-05-24T03:23:02.861Z,12.10
2023-05-24T03:25:32.288Z,12.10
2023-05-24T03:28:01.091Z,12.10
2023-05-24T03:30:29.256Z,12.20
2023-05-24T03:32:57.314Z,12.20
2023-05-24T03:35:25.669Z,12.20
2023-05-24T03:37:53.830Z,12.20
2023-05-24T03:40:21.889Z,12.20
2023-05-24T03:42:51.622Z,12.10
2023-05-24T03:45:30.610Z,12.00
2023-05-24T03:48:06.520Z,12.00
2023-05-24T03:50:34.540Z,12.00
2023-05-24T03:53:02.555Z,12.00
2023-05-24T03:55:30.574Z,12.00
2023-05-24T03:57:59.947Z,12.00
2023-05-24T04:00:28.146Z,11.90
2023-05-24T04:02:56.963Z,11.90
2023-05-24T04:05:27.113Z,11.80
2023-05-24T04:07:55.309Z,11.80
2023-05-24T04:10:23.826Z,11.80
2023-05-24T04:12:52.029Z,11.90
2023-05-24T04:15:21.419Z,11.80
2023-05-24T04:17:54.898Z,11.70
2023-05-24T04:20:25.393Z,11.70
2023-05-24T04:22:53.818Z,11.70
2023-05-24T04:25:22.134Z,11.70
2023-05-24T04:27:50.351Z,11.70
2023-05-24T04:30:18.665Z,11.80
2023-05-24T04:32:48.623Z,11.80
2023-05-24T04:35:16.807Z,11.90
2023-05-24T04:37:45.030Z,11.80
2023-05-24T04:40:13.836Z,11.90
2023-05-24T04:42:41.883Z,12.00
2023-05-24T04:45:10.923Z,12.10
2023-05-24T04:47:39.002Z,12.00
2023-05-24T04:50:09.158Z,12.00
2023-05-24T04:52:37.408Z,11.90
2023-05-24T04:55:06.021Z,12.00
2023-05-24T04:57:34.131Z,12.10
2023-05-24T05:00:02.175Z,12.10
2023-05-24T05:02:31.197Z,12.10
2023-05-24T05:04:59.282Z,12.20
2023-05-24T05:07:28.712Z,12.10
2023-05-24T05:09:57.138Z,12.10
2023-05-24T05:12:25.220Z,12.20
2023-05-24T05:14:53.277Z,12.20
2023-05-24T05:17:21.787Z,12.20
2023-05-24T05:19:49.920Z,12.20
2023-05-24T05:22:17.995Z,12.30
2023-05-24T05:24:47.375Z,12.30
2023-05-24T05:27:15.407Z,12.30
2023-05-24T05:29:43.496Z,12.40
2023-05-24T05:32:11.697Z,12.40
2023-05-24T05:34:39.842Z,12.40
2023-05-24T05:37:08.026Z,12.60
2023-05-24T05:39:36.161Z,12.60
2023-05-24T05:42:06.230Z,12.60
2023-05-24T05:44:34.266Z,12.50
2023-05-24T05:47:03.885Z,12.50
2023-05-24T05:49:32.776Z,12.50
2023-05-24T05:52:01.102Z,12.60
2023-05-24T05:54:29.144Z,12.70
2023-05-24T05:56:57.909Z,12.80
2023-05-24T05:59:28.403Z,13.00
2023-05-24T06:01:56.924Z,13.00
2023-05-24T06:04:25.023Z,13.20
2023-05-24T06:06:53.154Z,13.20
2023-05-24T06:09:21.295Z,13.00
2023-05-24T06:11:49.408Z,13.00
2023-05-24T06:14:18.240Z,13.40
2023-05-24T06:16:48.035Z,13.50
2023-05-24T06:19:16.617Z,13.50
2023-05-24T06:21:47.910Z,13.10
2023-05-24T06:24:20.687Z,13.30
2023-05-24T06:26:49.676Z,13.70
2023-05-24T06:29:20.196Z,14.00
2023-05-24T06:31:50.781Z,14.10
2023-05-24T06:34:21.307Z,14.40
2023-05-24T06:36:50.965Z,14.60
2023-05-24T06:39:19.080Z,14.20
2023-05-24T06:41:47.526Z,13.70
2023-05-24T06:44:16.467Z,13.70
2023-05-24T06:46:44.689Z,13.80
2023-05-24T06:49:14.651Z,13.80
2023-05-24T06:51:42.765Z,13.80
2023-05-24T06:54:11.031Z,13.80
2023-05-24T06:56:39.100Z,13.80
2023-05-24T06:59:08.718Z,13.60
2023-05-24T07:01:39.639Z,13.30
2023-05-24T07:04:07.976Z,13.10
2023-05-24T07:06:37.546Z,13.20
2023-05-24T07:09:06.045Z,13.20
2023-05-24T07:11:34.143Z,13.40
2023-05-24T07:14:02.173Z,13.40
2023-05-24T07:16:30.303Z,13.30
2023-05-24T07:18:59.105Z,13.30
2023-05-24T07:21:27.114Z,13.20
2023-05-24T07:23:57.054Z,13.20
2023-05-24T07:26:25.148Z,13.10
2023-05-24T07:28:53.274Z,13.00
2023-05-24T07:31:21.463Z,12.90
2023-05-24T07:33:49.528Z,13.10
2023-05-24T07:36:17.590Z,13.10
2023-05-24T07:38:45.624Z,13.20
2023-05-24T07:41:15.321Z,13.20
2023-05-24T07:43:43.346Z,13.30
2023-05-24T07:46:11.563Z,13.90
2023-05-24T07:48:39.612Z,14.30
2023-05-24T07:51:07.665Z,14.80
2023-05-24T07:53:37.720Z,14.70
2023-05-24T07:56:07.951Z,14.70
2023-05-24T07:58:37.670Z,14.70
2023-05-24T08:01:06.461Z,14.90
2023-05-24T08:03:36.958Z,14.70
2023-05-24T08:06:05.237Z,14.60
2023-05-24T08:08:33.739Z,14.80
2023-05-24T08:11:01.946Z,14.90
2023-05-24T08:13:30.023Z,15.10
2023-05-24T08:15:59.478Z,14.60
2023-05-24T08:18:27.685Z,14.40
2023-05-24T08:20:55.829Z,14.20
2023-05-24T08:23:23.898Z,14.50
2023-05-24T08:25:53.272Z,14.90
2023-05-24T08:28:21.480Z,15.20
2023-05-24T08:30:49.598Z,14.80
2023-05-24T08:33:19.471Z,14.40
2023-05-24T08:35:48.382Z,14.40
2023-05-24T08:38:16.503Z,14.30
2023-05-24T08:40:44.795Z,14.50
2023-05-24T08:43:13.524Z,14.60
2023-05-24T08:45:42.090Z,15.10
2023-05-24T08:48:13.099Z,15.10
2023-05-24T08:50:44.129Z,15.00
2023-05-24T08:53:13.204Z,14.70
2023-05-24T08:55:43.928Z,14.90
2023-05-24T08:58:12.691Z,14.90
2023-05-24T09:00:40.717Z,15.30
2023-05-24T09:03:10.546Z,15.30
2023-05-24T09:05:38.871Z,15.60
2023-05-24T09:08:09.738Z,15.40
2023-05-24T09:10:53.145Z,15.00
2023-05-24T09:13:24.927Z,14.90
2023-05-24T09:15:53.695Z,14.40
2023-05-24T09:18:22.108Z,14.20
2023-05-24T09:20:50.338Z,14.30
2023-05-24T09:23:20.176Z,14.30
2023-05-24T09:25:49.138Z,14.70
2023-05-24T09:28:19.337Z,14.40
2023-05-24T09:30:58.928Z,14.40
2023-05-24T09:33:31.425Z,14.90
2023-05-24T09:36:00.509Z,15.00
2023-05-24T09:38:30.320Z,14.70
2023-05-24T09:41:06.433Z,14.60
2023-05-24T09:43:36.348Z,15.10
2023-05-24T09:46:05.667Z,15.00
2023-05-24T09:48:33.999Z,14.50
2023-05-24T09:51:06.220Z,14.60
2023-05-24T09:53:36.689Z,14.80
2023-05-24T09:56:06.162Z,14.80
2023-05-24T09:58:34.375Z,14.60
2023-05-24T10:01:07.286Z,14.70
2023-05-24T10:03:37.449Z,14.50
2023-05-24T10:06:08.063Z,14.10
2023-05-24T10:08:37.902Z,14.10
2023-05-24T10:11:06.934Z,14.00
2023-05-24T10:13:36.890Z,14.00
2023-05-24T10:16:05.739Z,14.10
2023-05-24T10:18:33.949Z,13.90
2023-05-24T10:21:03.004Z,14.00
2023-05-24T10:23:33.507Z,13.50
2023-05-24T10:26:07.456Z,13.70
2023-05-24T10:28:39.453Z,13.60
2023-05-24T10:31:12.944Z,13.70
2023-05-24T10:33:44.337Z,13.50
2023-05-24T10:36:14.806Z,13.20
2023-05-24T10:38:43.685Z,13.40
2023-05-24T10:41:14.061Z,13.50
2023-05-24T10:43:56.749Z,13.40
2023-05-24T10:46:34.899Z,13.40
2023-05-24T10:49:04.834Z,13.90
2023-05-24T10:51:35.500Z,13.90
2023-05-24T10:54:19.914Z,14.20
2023-05-24T10:56:52.222Z,14.40
2023-05-24T10:59:35.059Z,14.70
2023-05-24T11:02:03.816Z,14.60
2023-05-24T11:04:38.701Z,14.50
2023-05-24T11:07:09.654Z,14.80
2023-05-24T11:09:40.138Z,15.30
2023-05-24T11:12:10.498Z,15.20
2023-05-24T11:14:40.502Z,15.60
2023-05-24T11:17:09.471Z,16.20
2023-05-24T11:19:38.821Z,16.50
2023-05-24T11:22:09.138Z,16.40
2023-05-24T11:24:38.216Z,16.50
2023-05-24T11:27:07.123Z,16.70
2023-05-24T11:29:44.814Z,16.50
2023-05-24T11:32:18.171Z,16.80
2023-05-24T11:34:47.647Z,17.40
2023-05-24T11:37:17.620Z,17.00
2023-05-24T11:39:52.720Z,17.10
2023-05-24T11:42:22.992Z,17.40
2023-05-24T11:44:54.281Z,18.20
2023-05-24T11:47:23.217Z,18.50
2023-05-24T11:49:52.574Z,19.50
2023-05-24T11:52:21.301Z,20.00
2023-05-24T11:54:51.773Z,20.20
2023-05-24T11:57:23.459Z,19.70
2023-05-24T11:59:53.314Z,19.30
2023-05-24T12:02:21.391Z,19.10
2023-05-24T12:04:49.643Z,19.30
2023-05-24T12:07:17.820Z,19.30
2023-05-24T12:09:45.992Z,19.30
2023-05-24T12:12:14.135Z,19.70
2023-05-24T12:14:42.255Z,20.20
2023-05-24T12:17:17.957Z,20.10
2023-05-24T12:19:46.508Z,20.50
2023-05-24T12:22:14.600Z,20.30
2023-05-24T12:24:42.647Z,20.60
2023-05-24T12:27:12.216Z,20.10
2023-05-24T12:29:42.354Z,20.20
2023-05-24T12:32:14.014Z,19.60
2023-05-24T12:34:45.482Z,20.10
2023-05-24T12:37:14.258Z,20.60
2023-05-24T12:39:43.393Z,21.00
2023-05-24T12:42:12.914Z,21.00
2023-05-24T12:44:41.800Z,21.10
2023-05-24T12:47:10.669Z,21.00
2023-05-24T12:49:38.945Z,21.20
2023-05-24T12:52:08.529Z,20.60
2023-05-24T12:54:36.653Z,20.30
2023-05-24T12:57:05.106Z,19.80
2023-05-24T12:59:34.931Z,19.40
2023-05-24T13:02:03.031Z,19.10
2023-05-24T13:04:33.501Z,19.50
2023-05-24T13:07:02.862Z,19.60
2023-05-24T13:09:33.181Z,20.00
2023-05-24T13:12:01.319Z,20.30
2023-05-24T13:14:29.605Z,21.40
2023-05-24T13:16:57.908Z,21.70
2023-05-24T13:19:25.976Z,21.50
2023-05-24T13:21:54.106Z,21.00
2023-05-24T13:24:23.294Z,21.10
2023-05-24T13:26:54.917Z,20.90
2023-05-24T13:31:54.842Z,20.00
2023-05-24T13:34:23.257Z,19.60
2023-05-24T13:36:51.594Z,19.30
2023-05-24T13:39:21.269Z,19.40
2023-05-24T13:41:49.583Z,19.80
2023-05-24T13:44:19.418Z,20.50
2023-05-24T13:46:48.258Z,21.50
2023-05-24T13:49:16.439Z,22.10
2023-05-24T13:51:44.466Z,22.20
2023-05-24T13:54:12.566Z,22.20
2023-05-24T13:56:40.578Z,22.00
2023-05-24T13:59:08.694Z,22.40
2023-05-24T14:01:39.201Z,22.30
2023-05-24T14:04:08.263Z,20.50
2023-05-24T14:06:38.396Z,20.80
2023-05-24T14:09:08.412Z,20.80
2023-05-24T14:11:37.012Z,19.50
2023-05-24T14:16:37.729Z,19.10
2023-05-24T14:19:06.310Z,19.10
2023-05-24T14:21:34.344Z,19.10
2023-05-24T14:24:02.423Z,18.60
2023-05-24T14:26:31.130Z,19.10
2023-05-24T14:28:59.165Z,20.20
2023-05-24T14:31:27.559Z,20.90
2023-05-24T14:33:57.037Z,20.50
2023-05-24T14:36:25.079Z,19.80
2023-05-24T14:38:53.331Z,19.30
2023-05-24T14:41:22.574Z,18.80
2023-05-24T14:43:51.112Z,18.70
2023-05-24T14:46:19.315Z,19.50
2023-05-24T14:48:47.480Z,20.50
2023-05-24T14:51:17.009Z,21.50
2023-05-24T14:53:45.222Z,20.30
2023-05-24T14:56:14.724Z,19.90
2023-05-24T14:58:43.049Z,19.10
2023-05-24T15:01:11.378Z,18.90
2023-05-24T15:03:39.662Z,19.00
2023-05-24T15:06:08.107Z,20.00
2023-05-24T15:08:37.533Z,20.90
2023-05-24T15:11:06.145Z,22.10
2023-05-24T15:13:34.277Z,23.00
2023-05-24T15:16:02.378Z,22.30
2023-05-24T15:18:32.180Z,21.30
2023-05-24T15:21:00.913Z,20.90
2023-05-24T15:23:29.150Z,20.90
2023-05-24T15:25:58.551Z,20.80
2023-05-24T15:28:27.036Z,21.30
2023-05-24T15:30:55.935Z,21.80
2023-05-24T15:33:24.081Z,21.30
2023-05-24T15:35:52.262Z,20.80
2023-05-24T15:38:20.780Z,20.60
2023-05-24T15:40:48.871Z,20.10
2023-05-24T15:43:19.557Z,19.90
2023-05-24T15:45:48.321Z,20.80
2023-05-24T15:48:16.392Z,21.30
2023-05-24T15:51:09.221Z,21.90
2023-05-24T15:53:32.864Z,22.40
2023-05-24T15:56:01.318Z,21.90
2023-05-24T15:58:30.984Z,20.90
2023-05-24T16:00:59.067Z,20.40
2023-05-24T16:03:27.264Z,20.10
2023-05-24T16:05:55.725Z,20.00
2023-05-24T16:08:27.702Z,19.40
2023-05-24T16:10:56.094Z,19.10
2023-05-24T16:13:24.592Z,18.90
2023-05-24T16:15:54.144Z,19.00
2023-05-24T16:18:23.604Z,19.40
2023-05-24T16:20:52.476Z,19.30
2023-05-24T16:23:22.996Z,19.10
2023-05-24T16:25:51.491Z,20.00
2023-05-24T16:28:23.725Z,20.20
2023-05-24T16:30:55.767Z,20.30
2023-05-24T16:33:24.332Z,20.30
2023-05-24T16:35:56.059Z,19.70
2023-05-24T16:38:24.468Z,18.90
2023-05-24T16:40:52.818Z,18.50
2023-05-24T16:43:21.558Z,18.10
2023-05-24T16:45:49.902Z,17.90
2023-05-24T16:48:21.278Z,17.90
2023-05-24T16:50:50.326Z,17.80
2023-05-24T16:53:20.329Z,17.70
2023-05-24T16:55:53.470Z,17.60
2023-05-24T16:58:21.494Z,17.50
2023-05-24T17:00:49.590Z,17.30
2023-05-24T17:03:23.016Z,17.50
2023-05-24T17:05:53.255Z,17.70
2023-05-24T17:08:21.868Z,17.70
2023-05-24T17:10:55.819Z,17.60
2023-05-24T17:13:24.213Z,17.50
2023-05-24T17:15:54.922Z,17.30
2023-05-24T17:18:29.837Z,17.20
2023-05-24T17:20:58.319Z,17.00
2023-05-24T17:23:26.935Z,16.90
2023-05-24T17:25:55.556Z,16.70
2023-05-24T17:28:27.222Z,16.50
2023-05-24T17:30:55.398Z,16.10
2023-05-24T17:33:25.846Z,16.00
2023-05-24T17:35:56.281Z,16.00
2023-05-24T17:38:24.853Z,15.90
2023-05-24T17:40:59.019Z,15.80
2023-05-24T17:43:31.697Z,15.60
2023-05-24T17:46:03.820Z,15.50
2023-05-24T17:48:34.247Z,15.50
2023-05-24T17:51:03.654Z,15.60
2023-05-24T17:53:34.517Z,15.70
2023-05-24T17:56:07.348Z,15.70
2023-05-24T17:58:37.149Z,15.70
2023-05-24T18:01:06.954Z,15.80
2023-05-24T18:03:37.577Z,15.70
2023-05-24T18:06:07.020Z,15.60
2023-05-24T18:08:37.779Z,15.40
2023-05-24T18:11:09.487Z,15.30
2023-05-24T18:13:38.761Z,15.10
2023-05-24T18:16:07.305Z,15.00
2023-05-24T18:18:37.678Z,15.00
2023-05-24T18:21:06.090Z,14.90
2023-05-24T18:23:37.573Z,14.90
2023-05-24T18:26:08.181Z,14.70
2023-05-24T18:28:37.579Z,14.70
2023-05-24T18:31:08.283Z,14.60
2023-05-24T18:33:38.054Z,14.50
2023-05-24T18:36:06.574Z,14.40
2023-05-24T18:38:35.226Z,14.30
2023-05-24T18:41:05.692Z,14.30
2023-05-24T18:43:34.518Z,14.30
2023-05-24T18:46:02.789Z,14.20
2023-05-24T18:48:30.823Z,14.10
2023-05-24T18:51:00.377Z,14.00
2023-05-24T18:53:31.663Z,13.90
2023-05-24T18:56:08.078Z,13.80
2023-05-24T18:58:36.259Z,13.60
2023-05-24T19:01:04.359Z,13.50
2023-05-24T19:03:32.547Z,13.40
2023-05-24T19:06:02.221Z,13.40
2023-05-24T19:08:30.310Z,13.30
2023-05-24T19:10:59.145Z,13.20
2023-05-24T19:13:27.642Z,13.30
2023-05-24T19:15:57.580Z,13.20
2023-05-24T19:18:25.829Z,13.30
2023-05-24T19:20:54.128Z,13.20
2023-05-24T19:23:23.577Z,13.40
2023-05-24T19:25:51.670Z,13.20
2023-05-24T19:28:19.843Z,13.10
2023-05-24T19:30:47.876Z,13.10
2023-05-24T19:33:15.923Z,13.10
2023-05-24T19:35:44.448Z,13.00
2023-05-24T19:38:15.085Z,13.00
2023-05-24T19:40:44.724Z,12.90
2023-05-24T19:43:14.848Z,12.90
2023-05-24T19:45:43.049Z,12.90
2023-05-24T19:48:11.352Z,12.70
2023-05-24T19:50:40.592Z,12.60
2023-05-24T19:53:08.947Z,12.60
2023-05-24T19:55:40.521Z,12.70
2023-05-24T19:58:29.350Z,12.60
2023-05-24T20:00:58.062Z,12.50
2023-05-24T20:03:26.246Z,12.40
2023-05-24T20:05:54.424Z,12.40
2023-05-24T20:08:22.635Z,12.40
2023-05-24T20:10:50.982Z,12.20
2023-05-24T20:13:21.075Z,12.20
2023-05-24T20:15:49.261Z,12.20
2023-05-24T20:18:17.299Z,12.10
2023-05-24T20:20:45.440Z,12.00
2023-05-24T20:23:13.462Z,12.00
2023-05-24T20:25:41.696Z,11.90
2023-05-24T20:28:21.761Z,11.80
2023-05-24T20:30:58.748Z,11.70
2023-05-24T20:33:26.869Z,11.60
2023-05-24T20:35:54.941Z,11.60
2023-05-24T20:38:23.632Z,11.60
2023-05-24T20:40:53.625Z,11.40
2023-05-24T20:43:21.667Z,11.40
2023-05-24T20:45:49.842Z,11.50
2023-05-24T20:48:19.278Z,11.40
2023-05-24T20:50:47.386Z,11.30
2023-05-24T20:53:15.468Z,11.20
2023-05-24T20:55:43.713Z,11.20
2023-05-24T20:58:12.112Z,11.20
2023-05-24T21:00:40.708Z,11.20
2023-05-24T21:03:12.753Z,11.10
2023-05-24T21:05:42.639Z,11.10
2023-05-24T21:08:10.869Z,11.10
2023-05-24T21:10:38.991Z,11.10
2023-05-24T21:13:07.106Z,11.10
2023-05-24T21:15:35.750Z,11.10
2023-05-24T21:18:04.614Z,11.00
2023-05-24T21:20:32.885Z,11.00
2023-05-24T21:23:02.417Z,11.10
2023-05-24T21:25:30.594Z,11.00
2023-05-24T21:27:58.681Z,11.00
2023-05-24T21:30:26.686Z,10.90
2023-05-24T21:32:54.772Z,11.00
2023-05-24T21:35:23.015Z,10.90
2023-05-24T21:37:52.426Z,10.90
2023-05-24T21:40:22.031Z,10.90
2023-05-24T21:42:50.128Z,11.00
2023-05-24T21:45:18.273Z,11.10
2023-05-24T21:47:46.401Z,11.20
2023-05-24T21:50:14.457Z,11.30
2023-05-24T21:52:42.553Z,11.30
2023-05-24T21:55:12.727Z,11.30
2023-05-24T21:57:42.141Z,11.40
2023-05-24T22:00:11.903Z,11.50
2023-05-24T22:02:39.983Z,11.50
2023-05-24T22:05:08.685Z,11.50
2023-05-24T22:07:37.079Z,11.60
2023-05-24T22:10:06.283Z,11.60
2023-05-24T22:12:34.344Z,11.60
2023-05-24T22:15:04.453Z,11.60
2023-05-24T22:17:33.083Z,11.60
2023-05-24T22:20:02.194Z,11.60
2023-05-24T22:22:30.323Z,11.60
2023-05-24T22:24:59.494Z,11.60
2023-05-24T22:27:27.585Z,11.50
2023-05-24T22:29:56.067Z,11.50
2023-05-24T22:32:32.670Z,11.50
2023-05-24T22:35:00.855Z,11.50
2023-05-24T22:37:28.997Z,11.50
2023-05-24T22:39:57.085Z,11.40
2023-05-24T22:42:25.221Z,11.40
2023-05-24T22:44:53.388Z,11.30
2023-05-24T22:47:22.568Z,11.30
2023-05-24T22:49:53.936Z,11.20
2023-05-24T22:52:24.422Z,11.20
2023-05-24T22:54:52.479Z,11.10
2023-05-24T22:57:21.644Z,11.20
2023-05-24T22:59:50.176Z,11.00
2023-05-24T23:02:18.388Z,10.90
2023-05-24T23:04:46.481Z,10.80
2023-05-24T23:07:16.533Z,10.90
2023-05-24T23:09:47.205Z,10.90
2023-05-24T23:12:15.302Z,11.00
2023-05-24T23:14:46.374Z,11.00
2023-05-24T23:17:14.641Z,10.90
2023-05-24T23:19:43.810Z,10.90
2023-05-24T23:22:12.830Z,11.00
2023-05-24T23:24:42.866Z,10.90
2023-05-24T23:27:11.270Z,11.00
2023-05-24T23:29:39.919Z,10.80
2023-05-24T23:32:09.243Z,10.70
2023-05-24T23:34:37.560Z,10.70
2023-05-24T23:37:06.534Z,10.60
2023-05-24T23:39:34.654Z,10.50
2023-05-24T23:42:04.163Z,10.50
2023-05-24T23:44:32.275Z,10.50
2023-05-24T23:47:00.428Z,10.50
2023-05-24T23:49:28.506Z,10.60
2023-05-24T23:51:56.552Z,10.50
2023-05-24T23:54:24.596Z,10.50
2023-05-24T23:56:52.734Z,10.60
2023-05-24T23:59:22.566Z,10.50
